WZZ71 LHBP-LDZD
Flight info
| Callsign | WZZ71 |
|---|---|
| Flight time | 0h 48m |
| Altitude | 30000 |
| Route | DUZLA DCT KOPRY/N0366F200 M986 KULEN DCT KUDUL |
| Aircraft | A321/M-SDE1E2E3FGIJ1J4RWXY/LB1 |
Departure
| Time | 2026-04-22 21:16 |
|---|---|
| Airport | Budapest Liszt Ferenc International Airport (LHBP) |
Arrival
| Time | 2026-04-22 22:04 |
|---|---|
| Airport | Zadar Airport (LDZD) |
| Time | Latitude | Longitude | Altitude | Speed | Heading |
|---|---|---|---|---|---|
| 2026-04-22 20:57 | 47.43564 | 19.26392 | 457 ft | 0 kts | 222° |
| 2026-04-22 21:07 | 47.43570 | 19.26400 | 457 ft | 4 kts | 223° |
| 2026-04-22 21:07 | 47.43587 | 19.26423 | 457 ft | 4 kts | 237° |
| 2026-04-22 21:08 | 47.43593 | 19.26456 | 457 ft | 4 kts | 289° |
| 2026-04-22 21:08 | 47.43579 | 19.26490 | 457 ft | 4 kts | 311° |
| 2026-04-22 21:08 | 47.43562 | 19.26517 | 455 ft | 2 kts | 313° |
| 2026-04-22 21:08 | 47.43561 | 19.26519 | 455 ft | 0 kts | 312° |
| 2026-04-22 21:10 | 47.43564 | 19.26514 | 454 ft | 2 kts | 312° |
| 2026-04-22 21:10 | 47.43586 | 19.26478 | 455 ft | 7 kts | 312° |
| 2026-04-22 21:10 | 47.43631 | 19.26406 | 457 ft | 11 kts | 312° |
| 2026-04-22 21:11 | 47.43673 | 19.26312 | 457 ft | 12 kts | 285° |
| 2026-04-22 21:11 | 47.43675 | 19.26187 | 457 ft | 13 kts | 266° |
| 2026-04-22 21:11 | 47.43689 | 19.26054 | 455 ft | 14 kts | 297° |
| 2026-04-22 21:11 | 47.43738 | 19.25935 | 457 ft | 14 kts | 269° |
| 2026-04-22 21:12 | 47.43674 | 19.25830 | 457 ft | 15 kts | 221° |
| 2026-04-22 21:12 | 47.43596 | 19.25727 | 457 ft | 16 kts | 222° |
| 2026-04-22 21:12 | 47.43513 | 19.25616 | 457 ft | 16 kts | 222° |
| 2026-04-22 21:12 | 47.43426 | 19.25499 | 457 ft | 17 kts | 222° |
| 2026-04-22 21:13 | 47.43336 | 19.25375 | 457 ft | 18 kts | 223° |
| 2026-04-22 21:13 | 47.43240 | 19.25247 | 457 ft | 19 kts | 222° |
| 2026-04-22 21:13 | 47.43152 | 19.25130 | 456 ft | 15 kts | 221° |
| 2026-04-22 21:13 | 47.43075 | 19.25029 | 457 ft | 9 kts | 224° |
| 2026-04-22 21:14 | 47.43079 | 19.24976 | 457 ft | 6 kts | 307° |
| 2026-04-22 21:14 | 47.43087 | 19.24961 | 457 ft | 0 kts | 311° |
| 2026-04-22 21:15 | 47.43088 | 19.24960 | 457 ft | 3 kts | 311° |
| 2026-04-22 21:15 | 47.43237 | 19.24719 | 456 ft | 68 kts | 313° |
| 2026-04-22 21:15 | 47.43710 | 19.23957 | 454 ft | 131 kts | 312° |
| 2026-04-22 21:15 | 47.44432 | 19.22797 | 592 ft | 166 kts | 314° |
| 2026-04-22 21:16 | 47.45197 | 19.21585 | 1416 ft | 157 kts | 316° |
| 2026-04-22 21:16 | 47.45940 | 19.20397 | 1978 ft | 163 kts | 316° |
| 2026-04-22 21:16 | 47.46763 | 19.19067 | 2200 ft | 187 kts | 316° |
| 2026-04-22 21:16 | 47.47691 | 19.17561 | 2407 ft | 209 kts | 315° |
| 2026-04-22 21:17 | 47.48589 | 19.15713 | 2540 ft | 238 kts | 295° |
| 2026-04-22 21:17 | 47.48895 | 19.13190 | 2936 ft | 261 kts | 268° |
| 2026-04-22 21:17 | 47.48372 | 19.10596 | 3619 ft | 269 kts | 240° |
| 2026-04-22 21:17 | 47.47079 | 19.08581 | 4338 ft | 276 kts | 212° |
| 2026-04-22 21:18 | 47.45363 | 19.07279 | 5114 ft | 279 kts | 207° |
| 2026-04-22 21:18 | 47.43612 | 19.06025 | 5900 ft | 281 kts | 206° |
| 2026-04-22 21:18 | 47.41849 | 19.04763 | 6681 ft | 283 kts | 206° |
| 2026-04-22 21:18 | 47.40067 | 19.03481 | 7401 ft | 286 kts | 207° |
| 2026-04-22 21:19 | 47.38269 | 19.02184 | 8148 ft | 289 kts | 207° |
| 2026-04-22 21:19 | 47.36454 | 19.00872 | 8889 ft | 292 kts | 207° |
| 2026-04-22 21:19 | 47.34618 | 18.99547 | 9616 ft | 296 kts | 207° |
| 2026-04-22 21:19 | 47.32755 | 18.98209 | 10273 ft | 302 kts | 207° |
| 2026-04-22 21:20 | 47.30780 | 18.96833 | 10449 ft | 325 kts | 206° |
| 2026-04-22 21:20 | 47.28655 | 18.95387 | 10610 ft | 346 kts | 205° |
| 2026-04-22 21:20 | 47.26431 | 18.93886 | 11096 ft | 355 kts | 205° |
| 2026-04-22 21:20 | 47.24171 | 18.92360 | 11713 ft | 360 kts | 205° |
| 2026-04-22 21:21 | 47.21882 | 18.90807 | 12331 ft | 364 kts | 205° |
| 2026-04-22 21:21 | 47.19567 | 18.89235 | 12947 ft | 369 kts | 205° |
| 2026-04-22 21:21 | 47.17223 | 18.87640 | 13553 ft | 374 kts | 204° |
| 2026-04-22 21:21 | 47.14858 | 18.86030 | 14196 ft | 376 kts | 204° |
| 2026-04-22 21:22 | 47.12474 | 18.84406 | 14781 ft | 379 kts | 204° |
| 2026-04-22 21:22 | 47.10069 | 18.82771 | 15355 ft | 383 kts | 204° |
| 2026-04-22 21:22 | 47.07641 | 18.81123 | 15930 ft | 386 kts | 204° |
| 2026-04-22 21:22 | 47.05222 | 18.79484 | 16496 ft | 390 kts | 204° |
| 2026-04-22 21:23 | 47.02741 | 18.77806 | 17070 ft | 394 kts | 204° |
| 2026-04-22 21:23 | 47.00243 | 18.76113 | 17637 ft | 398 kts | 204° |
| 2026-04-22 21:23 | 46.97821 | 18.74092 | 18181 ft | 403 kts | 215° |
| 2026-04-22 21:23 | 46.95668 | 18.71447 | 18687 ft | 407 kts | 226° |
| 2026-04-22 21:24 | 46.93864 | 18.68250 | 19164 ft | 409 kts | 237° |
| 2026-04-22 21:24 | 46.92407 | 18.64661 | 19636 ft | 412 kts | 242° |
| 2026-04-22 21:24 | 46.90980 | 18.61004 | 20138 ft | 416 kts | 242° |
| 2026-04-22 21:24 | 46.89532 | 18.57323 | 20628 ft | 419 kts | 241° |
| 2026-04-22 21:25 | 46.88067 | 18.53621 | 21128 ft | 423 kts | 241° |
| 2026-04-22 21:25 | 46.86588 | 18.49893 | 21627 ft | 426 kts | 241° |
| 2026-04-22 21:25 | 46.85093 | 18.46124 | 22106 ft | 430 kts | 241° |
| 2026-04-22 21:25 | 46.83585 | 18.42330 | 22579 ft | 434 kts | 240° |
| 2026-04-22 21:26 | 46.82064 | 18.38511 | 23057 ft | 437 kts | 240° |
| 2026-04-22 21:26 | 46.80525 | 18.34652 | 23520 ft | 441 kts | 240° |
| 2026-04-22 21:26 | 46.78979 | 18.30773 | 23915 ft | 444 kts | 240° |
| 2026-04-22 21:26 | 46.77418 | 18.26858 | 24281 ft | 448 kts | 240° |
| 2026-04-22 21:27 | 46.75845 | 18.22919 | 24633 ft | 451 kts | 240° |
| 2026-04-22 21:27 | 46.74260 | 18.18958 | 25035 ft | 453 kts | 240° |
| 2026-04-22 21:27 | 46.72665 | 18.14985 | 25415 ft | 455 kts | 240° |
| 2026-04-22 21:27 | 46.71057 | 18.10984 | 25662 ft | 461 kts | 240° |
| 2026-04-22 21:28 | 46.69979 | 18.08304 | 25842 ft | 464 kts | 240° |
| 2026-04-22 21:28 | 46.68320 | 18.04175 | 26148 ft | 468 kts | 239° |
| 2026-04-22 21:28 | 46.66673 | 18.00076 | 26486 ft | 471 kts | 239° |
| 2026-04-22 21:28 | 46.65013 | 17.95945 | 26816 ft | 474 kts | 239° |
| 2026-04-22 21:29 | 46.63342 | 17.91799 | 27146 ft | 477 kts | 239° |
| 2026-04-22 21:29 | 46.61654 | 17.87628 | 27473 ft | 480 kts | 239° |
| 2026-04-22 21:29 | 46.59952 | 17.83434 | 27813 ft | 483 kts | 239° |
| 2026-04-22 21:29 | 46.58244 | 17.79231 | 28212 ft | 483 kts | 239° |
| 2026-04-22 21:30 | 46.56531 | 17.75022 | 28556 ft | 485 kts | 239° |
| 2026-04-22 21:30 | 46.54806 | 17.70792 | 28860 ft | 488 kts | 239° |
| 2026-04-22 21:30 | 46.53071 | 17.66540 | 29159 ft | 490 kts | 239° |
| 2026-04-22 21:30 | 46.51328 | 17.62271 | 29457 ft | 493 kts | 239° |
| 2026-04-22 21:31 | 46.49572 | 17.57976 | 29731 ft | 496 kts | 239° |
| 2026-04-22 21:31 | 46.47808 | 17.53671 | 30042 ft | 498 kts | 238° |
| 2026-04-22 21:31 | 46.46059 | 17.49412 | 30177 ft | 494 kts | 238° |
| 2026-04-22 21:31 | 46.44326 | 17.45195 | 30206 ft | 481 kts | 239° |
| 2026-04-22 21:32 | 46.40940 | 17.36976 | 30197 ft | 472 kts | 239° |
| 2026-04-22 21:32 | 46.37574 | 17.28826 | 30195 ft | 471 kts | 239° |
| 2026-04-22 21:33 | 46.34206 | 17.20689 | 30201 ft | 471 kts | 239° |
| 2026-04-22 21:33 | 46.30824 | 17.12559 | 30201 ft | 471 kts | 239° |
| 2026-04-22 21:34 | 46.27442 | 17.04451 | 30223 ft | 470 kts | 239° |
| 2026-04-22 21:34 | 46.24052 | 16.96402 | 30225 ft | 468 kts | 236° |
| 2026-04-22 21:35 | 46.20180 | 16.88878 | 30230 ft | 466 kts | 233° |
| 2026-04-22 21:35 | 46.16287 | 16.81407 | 30227 ft | 465 kts | 233° |
| 2026-04-22 21:36 | 46.12395 | 16.73957 | 30237 ft | 464 kts | 233° |
| 2026-04-22 21:36 | 46.08507 | 16.66553 | 30236 ft | 462 kts | 233° |
| 2026-04-22 21:37 | 46.04636 | 16.59169 | 30240 ft | 461 kts | 233° |
| 2026-04-22 21:37 | 46.00763 | 16.51813 | 30240 ft | 461 kts | 233° |
| 2026-04-22 21:38 | 45.96926 | 16.44564 | 30239 ft | 460 kts | 233° |
| 2026-04-22 21:38 | 45.93049 | 16.37266 | 30234 ft | 458 kts | 233° |
| 2026-04-22 21:39 | 45.89180 | 16.30007 | 30256 ft | 457 kts | 233° |
| 2026-04-22 21:39 | 45.85087 | 16.23018 | 30258 ft | 457 kts | 229° |
| 2026-04-22 21:40 | 45.80816 | 16.16266 | 30266 ft | 456 kts | 229° |
| 2026-04-22 21:40 | 45.76567 | 16.09535 | 30278 ft | 454 kts | 230° |
| 2026-04-22 21:41 | 45.72390 | 16.02759 | 30268 ft | 453 kts | 230° |
| 2026-04-22 21:41 | 45.68274 | 15.96029 | 30250 ft | 452 kts | 230° |
| 2026-04-22 21:42 | 45.64112 | 15.89291 | 30248 ft | 452 kts | 230° |
| 2026-04-22 21:42 | 45.59944 | 15.82579 | 30244 ft | 451 kts | 230° |
| 2026-04-22 21:43 | 45.55727 | 15.75798 | 30231 ft | 465 kts | 230° |
| 2026-04-22 21:43 | 45.51445 | 15.68927 | 29874 ft | 456 kts | 230° |
| 2026-04-22 21:44 | 45.49346 | 15.65573 | 29342 ft | 451 kts | 230° |
| 2026-04-22 21:44 | 45.47269 | 15.62257 | 28808 ft | 446 kts | 230° |
| 2026-04-22 21:44 | 45.45210 | 15.58974 | 28276 ft | 442 kts | 231° |
| 2026-04-22 21:44 | 45.43170 | 15.55721 | 27745 ft | 439 kts | 231° |
| 2026-04-22 21:45 | 45.41149 | 15.52495 | 27195 ft | 435 kts | 231° |
| 2026-04-22 21:45 | 45.39143 | 15.49297 | 26523 ft | 428 kts | 231° |
| 2026-04-22 21:45 | 45.37178 | 15.46162 | 25439 ft | 422 kts | 231° |
| 2026-04-22 21:45 | 45.35240 | 15.43074 | 24686 ft | 411 kts | 230° |
| 2026-04-22 21:46 | 45.33386 | 15.40136 | 24363 ft | 389 kts | 230° |
| 2026-04-22 21:46 | 45.31611 | 15.37325 | 23953 ft | 378 kts | 231° |
| 2026-04-22 21:46 | 45.29870 | 15.34562 | 23548 ft | 374 kts | 231° |
| 2026-04-22 21:46 | 45.28142 | 15.31816 | 23140 ft | 371 kts | 231° |
| 2026-04-22 21:47 | 45.26433 | 15.29099 | 22739 ft | 367 kts | 231° |
| 2026-04-22 21:47 | 45.24742 | 15.26407 | 22331 ft | 364 kts | 231° |
| 2026-04-22 21:47 | 45.23065 | 15.23740 | 21922 ft | 361 kts | 231° |
| 2026-04-22 21:47 | 45.21400 | 15.21098 | 21519 ft | 358 kts | 231° |
| 2026-04-22 21:48 | 45.19744 | 15.18475 | 21110 ft | 356 kts | 230° |
| 2026-04-22 21:48 | 45.17925 | 15.16098 | 20700 ft | 356 kts | 218° |
| 2026-04-22 21:48 | 45.15812 | 15.14284 | 20294 ft | 357 kts | 206° |
| 2026-04-22 21:48 | 45.13478 | 15.13110 | 19883 ft | 356 kts | 193° |
| 2026-04-22 21:49 | 45.11088 | 15.12604 | 19487 ft | 354 kts | 185° |
| 2026-04-22 21:49 | 45.08612 | 15.12278 | 19073 ft | 353 kts | 185° |
| 2026-04-22 21:49 | 45.06162 | 15.11940 | 18665 ft | 352 kts | 185° |
| 2026-04-22 21:49 | 45.03725 | 15.11598 | 18227 ft | 351 kts | 185° |
| 2026-04-22 21:50 | 45.01302 | 15.11259 | 17815 ft | 349 kts | 185° |
| 2026-04-22 21:50 | 44.98894 | 15.10926 | 17415 ft | 346 kts | 185° |
| 2026-04-22 21:50 | 44.96502 | 15.10594 | 17004 ft | 344 kts | 185° |
| 2026-04-22 21:50 | 44.94126 | 15.10263 | 16615 ft | 342 kts | 185° |
| 2026-04-22 21:51 | 44.91761 | 15.09934 | 16207 ft | 341 kts | 185° |
| 2026-04-22 21:51 | 44.89406 | 15.09607 | 15848 ft | 338 kts | 185° |
| 2026-04-22 21:51 | 44.87058 | 15.09283 | 15433 ft | 339 kts | 185° |
| 2026-04-22 21:52 | 44.82363 | 15.08636 | 14635 ft | 338 kts | 185° |
| 2026-04-22 21:52 | 44.80027 | 15.08316 | 14245 ft | 337 kts | 185° |
| 2026-04-22 21:52 | 44.77688 | 15.07996 | 13831 ft | 337 kts | 185° |
| 2026-04-22 21:52 | 44.75363 | 15.07675 | 13420 ft | 335 kts | 185° |
| 2026-04-22 21:53 | 44.73057 | 15.07358 | 13034 ft | 332 kts | 185° |
| 2026-04-22 21:53 | 44.70763 | 15.07042 | 12651 ft | 330 kts | 185° |
| 2026-04-22 21:53 | 44.68486 | 15.06731 | 12262 ft | 327 kts | 185° |
| 2026-04-22 21:53 | 44.66227 | 15.06419 | 11891 ft | 325 kts | 185° |
| 2026-04-22 21:54 | 44.63990 | 15.06048 | 11518 ft | 323 kts | 186° |
| 2026-04-22 21:54 | 44.61767 | 15.05632 | 11139 ft | 322 kts | 187° |
| 2026-04-22 21:54 | 44.59555 | 15.05202 | 10766 ft | 319 kts | 187° |
| 2026-04-22 21:54 | 44.57359 | 15.04774 | 10391 ft | 317 kts | 187° |
| 2026-04-22 21:55 | 44.55203 | 15.04358 | 10143 ft | 310 kts | 187° |
| 2026-04-22 21:55 | 44.53091 | 15.03956 | 9957 ft | 304 kts | 186° |
| 2026-04-22 21:55 | 44.50991 | 15.03562 | 9621 ft | 305 kts | 186° |
| 2026-04-22 21:55 | 44.48892 | 15.03173 | 9232 ft | 303 kts | 185° |
| 2026-04-22 21:56 | 44.46802 | 15.02789 | 8846 ft | 302 kts | 185° |
| 2026-04-22 21:56 | 44.44715 | 15.02405 | 8374 ft | 305 kts | 185° |
| 2026-04-22 21:56 | 44.42611 | 15.02016 | 8026 ft | 303 kts | 185° |
| 2026-04-22 21:56 | 44.40521 | 15.01627 | 7590 ft | 304 kts | 184° |
| 2026-04-22 21:57 | 44.38442 | 15.01273 | 7298 ft | 298 kts | 178° |
| 2026-04-22 21:57 | 44.36419 | 15.01545 | 6928 ft | 289 kts | 159° |
| 2026-04-22 21:57 | 44.34607 | 15.02608 | 6563 ft | 278 kts | 141° |
| 2026-04-22 21:57 | 44.33126 | 15.04265 | 6194 ft | 269 kts | 129° |
| 2026-04-22 21:58 | 44.31793 | 15.06094 | 5819 ft | 268 kts | 129° |
| 2026-04-22 21:58 | 44.30463 | 15.07921 | 5467 ft | 268 kts | 129° |
| 2026-04-22 21:58 | 44.29133 | 15.09742 | 5102 ft | 267 kts | 129° |
| 2026-04-22 21:58 | 44.27830 | 15.11519 | 4730 ft | 254 kts | 129° |
| 2026-04-22 21:59 | 44.26604 | 15.13190 | 4399 ft | 239 kts | 129° |
| 2026-04-22 21:59 | 44.25439 | 15.14783 | 4082 ft | 233 kts | 129° |
| 2026-04-22 21:59 | 44.24290 | 15.16355 | 3766 ft | 229 kts | 130° |
| 2026-04-22 21:59 | 44.23178 | 15.17870 | 3450 ft | 217 kts | 130° |
| 2026-04-22 22:00 | 44.22109 | 15.19328 | 3182 ft | 211 kts | 130° |
| 2026-04-22 22:00 | 44.21085 | 15.20723 | 2887 ft | 201 kts | 131° |
| 2026-04-22 22:00 | 44.20108 | 15.22054 | 2595 ft | 192 kts | 131° |
| 2026-04-22 22:00 | 44.19174 | 15.23327 | 2324 ft | 184 kts | 133° |
| 2026-04-22 22:01 | 44.18281 | 15.24542 | 2077 ft | 175 kts | 133° |
| 2026-04-22 22:01 | 44.17435 | 15.25694 | 1848 ft | 165 kts | 133° |
| 2026-04-22 22:01 | 44.16652 | 15.26758 | 1671 ft | 152 kts | 133° |
| 2026-04-22 22:01 | 44.15909 | 15.27769 | 1450 ft | 148 kts | 132° |
| 2026-04-22 22:02 | 44.15170 | 15.28773 | 1263 ft | 149 kts | 131° |
| 2026-04-22 22:02 | 44.14426 | 15.29784 | 1047 ft | 150 kts | 131° |
| 2026-04-22 22:02 | 44.13684 | 15.30792 | 842 ft | 153 kts | 133° |
| 2026-04-22 22:02 | 44.12923 | 15.31824 | 645 ft | 153 kts | 132° |
| 2026-04-22 22:03 | 44.12164 | 15.32856 | 439 ft | 152 kts | 134° |
| 2026-04-22 22:03 | 44.11415 | 15.33875 | 281 ft | 146 kts | 135° |
| 2026-04-22 22:03 | 44.10800 | 15.34709 | 280 ft | 95 kts | 135° |
| 2026-04-22 22:03 | 44.10411 | 15.35237 | 278 ft | 65 kts | 136° |
| 2026-04-22 22:04 | 44.10165 | 15.35565 | 279 ft | 31 kts | 136° |
| 2026-04-22 22:04 | 44.10055 | 15.35699 | 281 ft | 14 kts | 147° |
| 2026-04-22 22:04 | 44.10000 | 15.35674 | 280 ft | 10 kts | 224° |
| 2026-04-22 22:04 | 44.09947 | 15.35601 | 279 ft | 12 kts | 226° |
| 2026-04-22 22:05 | 44.09878 | 15.35529 | 277 ft | 14 kts | 191° |
| 2026-04-22 22:05 | 44.09768 | 15.35538 | 275 ft | 17 kts | 178° |
| 2026-04-22 22:05 | 44.09664 | 15.35540 | 275 ft | 11 kts | 178° |
| 2026-04-22 22:05 | 44.09636 | 15.35499 | 275 ft | 6 kts | 258° |
| 2026-04-22 22:06 | 44.09654 | 15.35454 | 275 ft | 3 kts | 324° |
| 2026-04-22 22:06 | 44.09670 | 15.35438 | 275 ft | 2 kts | 324° |
| 2026-04-22 22:06 | 44.09672 | 15.35436 | 275 ft | 0 kts | 324° |